• Join FlightAware (Why Join?)
  • Login
  • US Flag 
05:08AM EDT


 

Airport Tracker/Info


-or-


 

Live Flight TrackerFlight Track Log ✈ N400PU ✈ 29-Nov-2012 ✈ KAMW - KFWA

Flight Track Log - Related Links

Times and Time Zones

All times are in EST time to prevent confusion due to time zone crossing. See the N400PU flight status page for this flight to view local times or setup timezone preferences in your user account.

Time Position Orientation Groundspeed Altitude Reporting Facility
EST Latitude Longitude Course Direction KTS MPH feet Rate Location/Type
11:19PM 42.0186 -93.6053 67° East 171 197 1,800  Level Minneapolis Center
11:20PM 42.0383 -93.5417 67° East 238 274 4,200 2,700 Climbing Minneapolis Center
11:21PM 42.0086 -93.4772 122° Southeast 243 280 6,900 2,820 Climbing Minneapolis Center
11:22PM 41.9844 -93.3864 110° East 255 293 10,100 3,000 Climbing Minneapolis Center
11:23PM 41.9539 -93.2650 109° East 288 331 13,000 2,640 Climbing Minneapolis Center
11:24PM 41.9275 -93.1586 108° East 312 359 15,500 2,400 Climbing Minneapolis Center
11:25PM 41.8983 -93.0450 109° East 322 371 17,900 2,340 Climbing Minneapolis Center
11:26PM 41.8686 -92.9289 109° East 327 376 20,300 2,220 Climbing Minneapolis Center
11:27PM 41.8378 -92.8100 109° East 334 384 22,400 1,920 Climbing Minneapolis Center
11:28PM 41.8047 -92.6822 109° East 344 396 24,300 1,800 Climbing Minneapolis Center
11:29PM 41.7711 -92.5564 110° East 354 407 26,100 1,620 Climbing Minneapolis Center
11:30PM 41.7369 -92.4278 110° East 363 418 27,600 1,320 Climbing Minneapolis Center
11:31PM 41.7022 -92.2950 109° East 373 429 28,800 1,260 Climbing Minneapolis Center
11:32PM 41.6878 -92.1133 96° East 411 473 30,200 1,260 Climbing Minneapolis Center
11:33PM 41.6714 -91.9242 97° East 409 471 31,700 1,440 Climbing Chicago Center
11:34PM 41.6622 -91.7708 95° East 420 483 33,400 1,620 Climbing Chicago Center
11:35PM 41.6508 -91.6147 96° East 414 476 35,000 1,380 Climbing Chicago Center
11:36PM 41.6389 -91.4697 96° East 409 471 36,200 960 Climbing Chicago Center
11:37PM 41.6269 -91.3194 96° East 404 465 37,000 360 Climbing Chicago Center
11:38PM 41.6150 -91.1664 96° East 409 471 37,000  Level Chicago Center
11:39PM 41.6050 -90.9994 95° East 422 486 37,000  Level Chicago Center
11:40PM 41.5883 -90.8325 98° East 441 507 37,000  Level Chicago Center
11:41PM 41.5758 -90.6739 96° East 466 536 37,000  Level Chicago Center
11:42PM 41.5608 -90.5069 97° East 466 536 37,000  Level Chicago Center
11:43PM 41.5458 -90.3319 96° East 466 536 37,000  Level Chicago Center
11:44PM 41.5286 -90.1375 97° East 466 536 37,000  Level Chicago Center
11:45PM 41.5150 -89.9628 96° East 466 536 37,000  Level Chicago Center
11:46PM 41.4992 -89.7908 97° East 466 536 37,000  Level Chicago Center
11:47PM 41.4831 -89.6133 97° East 466 536 37,000  Level Chicago Center
11:48PM 41.4667 -89.4386 97° East 466 536 37,000  Level Chicago Center
11:49PM 41.4478 -89.2639 98° East 466 536 37,000  Level Chicago Center
11:50PM 41.4331 -89.1117 97° East 466 536 37,000  Level Chicago Center
11:51PM 41.4158 -88.9375 97° East 466 536 37,000  Level Chicago Center
11:52PM 41.3964 -88.7631 98° East 466 536 37,000 -60 Level Chicago Center
11:53PM 41.3786 -88.5889 98° East 466 536 36,900 -840 Descending Chicago Center
11:54PM 41.3606 -88.4122 98° East 471 542 35,400 -1,560 Descending Chicago Center
11:55PM 41.3425 -88.2408 98° East 471 542 33,800 -1,620 Descending Chicago Center
11:56PM 41.3219 -88.0725 99° East 464 534 32,200 -1,800 Descending Chicago Center
11:57PM 41.3050 -87.8878 97° East 464 534 30,200 -1,920 Descending Chicago Center
11:58PM 41.2861 -87.7250 99° East 458 527 28,400 -1,800 Descending Chicago Center
11:59PM 41.2692 -87.5653 98° East 446 513 26,700 -1,800 Descending Chicago Center
12:00AM 41.2519 -87.4056 98° East 446 513 24,900 -1,380 Descending Chicago Center
12:01AM 41.2347 -87.2486 98° East 441 507 24,000 -480 Descending Chicago Center
12:02AM 41.2192 -87.0944 98° East 430 495 24,000 -180 Level Chicago Center
12:03AM 41.1994 -86.9406 100° East 424 488 23,700 -1,020 Descending Chicago Center
12:04AM 41.1814 -86.7842 99° East 429 494 22,000 -1,680 Descending Chicago Center
12:05AM 41.1636 -86.6469 100° East 429 494 20,400 -1,680 Descending Chicago Center
12:06AM 41.1433 -86.5014 100° East 413 475 18,700 -1,620 Descending Chicago Center
12:07AM 41.1278 -86.3725 99° East 384 442 17,200 -1,740 Descending Chicago Center
12:08AM 41.1117 -86.2467 100° East 361 415 15,300 -1,920 Descending Chicago Center
12:09AM 41.0981 -86.1286 99° East 336 387 13,400 -1,920 Descending Chicago Center
12:10AM 41.0822 -86.0083 100° East 323 372 11,500 -1,920 Descending Chicago Center
12:11AM 41.0706 -85.8986 98° East 313 360 9,600 -1,860 Descending Chicago Center
12:12AM 41.0567 -85.7864 99° East 313 360 7,800 -1,920 Descending Chicago Center
12:13AM 41.0431 -85.6853 100° East 300 345 5,900 -1,980 Descending Chicago Center
12:14AM 41.0294 -85.5897 101° East 280 322 3,900 -1,860 Descending Chicago Center
12:15AM 41.0281 -85.4878 91° East 274 315 2,200 -1,740 Descending Chicago Center
12:17AM 40.9886 -85.2868 101° East  Level FlightAware Approximate
12:24AM 40.9785 -85.1952 108° East  Level Estimated
12:25AM 40.9785 -85.1952 108° East  Level Estimated
12:26AM 40.9785 -85.1952 108° East  Level Estimated
12:27AM 40.9785 -85.1952 108° East  Level Estimated
12:28AM 40.9785 -85.1952 108° East  Level Estimated